Aviation Digital Data Service (ADDS)

Output produced by METARs form (2041 UTC 31 October 2014)
found at http://aviationweather.gov/adds/metars/
 
KBAF 311729Z 3118/0118 03005KT P6SM OVC050 
     FM010900 03009KT P6SM OVC090 
     FM011500 03012G22KT P6SM OVC015 
     FM011700 03013G22KT P6SM -SHRA OVC015